Time;durP1;ratioP1;P1;durP2;ratioP2;P2;SDS_P1;SDS_P2;PMS_P1;PMS_P2;Temp;Humidity;BMP_temperature;BMP_pressure;BME280_temperature;BME280_humidity;BME280_pressure;Samples;Min_cycle;Max_cycle;Signal;HPM_P1;HPM_P2
2022/12/22 03:28:11;;;;;;;6.18;5.38;;;8.60;99.90;;;;;;5094150;28;20420;-62
2022/12/22 03:30:38;;;;;;;6.72;5.50;;;8.60;99.90;;;;;;5093768;28;20413;-63
2022/12/22 03:33:07;;;;;;;6.32;5.20;;;8.50;99.90;;;;;;5093805;28;20413;-61
2022/12/22 03:35:34;;;;;;;7.03;5.60;;;8.60;99.90;;;;;;5093915;28;20828;-62
2022/12/22 03:38:02;;;;;;;6.28;5.30;;;8.60;99.90;;;;;;5092503;28;20805;-63
2022/12/22 03:40:30;;;;;;;6.20;5.60;;;8.60;99.90;;;;;;5092386;28;20513;-62
2022/12/22 03:48:26;;;;;;;6.75;6.15;;;8.60;99.90;;;;;;5092241;28;20452;-62
2022/12/22 03:50:53;;;;;;;5.70;5.20;;;8.60;99.90;;;;;;5092466;28;20421;-61
2022/12/22 03:53:20;;;;;;;6.25;5.65;;;8.60;99.90;;;;;;5092350;28;20410;-61
2022/12/22 03:55:46;;;;;;;6.65;6.05;;;8.60;99.90;;;;;;5091982;28;20782;-63
2022/12/22 03:58:13;;;;;;;6.57;5.88;;;8.60;99.90;;;;;;5092143;28;20414;-62
2022/12/22 04:00:40;;;;;;;6.75;5.78;;;8.60;99.90;;;;;;5092099;28;20414;-61
2022/12/22 04:03:06;;;;;;;6.20;5.60;;;8.70;99.90;;;;;;5092114;28;20890;-61
2022/12/22 04:05:35;;;;;;;7.00;6.00;;;8.70;99.90;;;;;;5091890;28;20991;-62
2022/12/22 04:13:32;;;;;;;6.00;5.40;;;8.70;99.90;;;;;;5092757;28;20549;-64
2022/12/22 04:15:59;;;;;;;7.77;6.37;;;8.60;99.90;;;;;;5091922;28;20913;-62
2022/12/22 04:18:26;;;;;;;6.87;5.40;;;8.60;99.90;;;;;;5091720;28;20466;-63
2022/12/22 04:20:53;;;;;;;6.50;5.47;;;8.60;99.90;;;;;;5091553;28;21029;-64
2022/12/22 04:23:19;;;;;;;7.60;6.40;;;8.60;99.90;;;;;;5087014;22;20317;-63
2022/12/22 04:25:47;;;;;;;7.50;6.75;;;8.60;99.90;;;;;;5050762;28;20406;-62
2022/12/22 04:28:14;;;;;;;7.70;6.80;;;8.60;99.90;;;;;;5051748;28;20422;-62
2022/12/22 04:30:41;;;;;;;7.47;6.77;;;8.60;99.90;;;;;;5058304;28;20244;-62
2022/12/22 04:33:08;;;;;;;7.55;6.20;;;8.60;99.90;;;;;;5067169;28;20459;-62
2022/12/22 04:35:34;;;;;;;6.28;5.68;;;8.60;99.90;;;;;;5064738;28;20760;-62
2022/12/22 04:38:01;;;;;;;11.20;6.97;;;8.60;99.90;;;;;;5058778;28;20210;-63
2022/12/22 04:40:28;;;;;;;7.43;6.70;;;8.60;99.90;;;;;;5055408;28;20437;-63
2022/12/22 04:42:56;;;;;;;8.60;6.75;;;8.60;99.90;;;;;;5056238;28;20224;-62
2022/12/22 04:45:23;;;;;;;6.68;6.00;;;8.70;99.90;;;;;;5055776;28;20224;-62
2022/12/22 04:47:49;;;;;;;7.32;6.60;;;8.70;99.90;;;;;;5055749;28;20669;-64
2022/12/22 04:50:16;;;;;;;7.00;6.30;;;8.70;99.90;;;;;;5057614;28;20221;-63
2022/12/22 04:52:43;;;;;;;6.57;5.88;;;8.70;99.90;;;;;;5061719;28;20217;-63
2022/12/22 04:55:10;;;;;;;7.85;7.03;;;8.70;99.90;;;;;;5064565;28;20201;-62
2022/12/22 04:57:36;;;;;;;7.18;6.30;;;8.70;99.90;;;;;;5064643;28;20677;-63
2022/12/22 05:00:05;;;;;;;8.45;7.53;;;8.70;99.90;;;;;;5065229;28;20669;-62
2022/12/22 05:02:32;;;;;;;7.32;6.63;;;8.70;99.90;;;;;;5060989;28;20221;-63
2022/12/22 05:04:59;;;;;;;6.97;6.07;;;8.70;99.90;;;;;;5052957;28;20224;-62
2022/12/22 05:07:26;;;;;;;6.82;6.07;;;8.80;99.90;;;;;;5030997;28;20206;-62
2022/12/22 05:09:52;;;;;;;9.17;7.50;;;8.80;99.90;;;;;;5038524;28;20237;-61
2022/12/22 05:15:05;;;;;;;7.68;6.90;;;8.80;99.90;;;;;;5049608;28;20577;-62
2022/12/22 05:17:32;;;;;;;7.77;6.73;;;8.80;99.90;;;;;;5049982;28;20202;-62
2022/12/22 05:19:59;;;;;;;8.00;7.20;;;8.80;99.90;;;;;;5049030;28;20444;-62
2022/12/22 05:22:25;;;;;;;8.30;7.50;;;8.80;99.90;;;;;;5035950;28;20225;-62
2022/12/22 05:24:52;;;;;;;9.30;7.35;;;8.80;99.90;;;;;;5035568;28;20568;-63
2022/12/22 05:27:19;;;;;;;8.77;7.55;;;8.80;99.90;;;;;;5035356;28;20202;-64
2022/12/22 05:29:45;;;;;;;9.00;7.43;;;8.80;99.90;;;;;;5035721;28;20226;-63
2022/12/22 05:32:14;;;;;;;7.10;6.40;;;8.80;99.90;;;;;;5038116;28;20199;-63
2022/12/22 05:34:40;;;;;;;9.80;6.85;;;8.80;99.90;;;;;;5035811;28;20662;-63
2022/12/22 05:37:07;;;;;;;7.43;6.38;;;8.80;99.90;;;;;;5035099;28;20198;-62
2022/12/22 05:39:34;;;;;;;9.27;8.18;;;8.90;99.90;;;;;;5034922;28;20198;-62
2022/12/22 05:42:00;;;;;;;9.95;7.55;;;8.80;99.90;;;;;;5037485;28;20201;-64
2022/12/22 05:44:27;;;;;;;10.00;7.28;;;8.80;99.90;;;;;;5039463;28;20214;-63
2022/12/22 05:46:54;;;;;;;9.13;7.55;;;8.80;99.90;;;;;;5040034;28;20202;-63
2022/12/22 05:49:22;;;;;;;7.88;7.07;;;8.80;99.90;;;;;;5041887;28;20245;-62
2022/12/22 05:51:50;;;;;;;10.10;9.00;;;8.80;99.90;;;;;;5045139;28;20410;-63
2022/12/22 05:54:17;;;;;;;9.75;8.75;;;8.70;99.90;;;;;;5046088;28;20426;-63
2022/12/22 05:56:44;;;;;;;8.80;7.90;;;8.70;99.90;;;;;;5043903;28;20198;-62
2022/12/22 05:59:10;;;;;;;8.77;7.78;;;8.70;99.90;;;;;;5042387;28;20201;-63
2022/12/22 06:01:37;;;;;;;9.85;8.63;;;8.70;99.90;;;;;;5037757;28;20659;-63
2022/12/22 06:04:04;;;;;;;8.40;7.20;;;8.70;99.90;;;;;;5039853;28;20214;-63
2022/12/22 06:06:32;;;;;;;9.60;8.60;;;8.70;99.90;;;;;;5039102;28;20207;-63
2022/12/22 06:08:59;;;;;;;10.43;8.73;;;8.70;99.90;;;;;;5038650;28;20202;-63
2022/12/22 06:11:26;;;;;;;8.35;7.45;;;8.80;99.90;;;;;;5039408;28;20205;-62
2022/12/22 06:13:53;;;;;;;9.43;8.43;;;8.80;99.90;;;;;;5038566;28;20226;-61
2022/12/22 06:16:19;;;;;;;12.45;8.50;;;8.80;99.90;;;;;;5038847;28;20212;-63
2022/12/22 06:18:46;;;;;;;15.05;7.90;;;8.90;99.90;;;;;;5027623;28;20581;-63
2022/12/22 06:21:13;;;;;;;9.67;8.17;;;8.90;99.90;;;;;;5041030;28;20201;-64
2022/12/22 06:23:41;;;;;;;9.95;8.27;;;8.90;99.90;;;;;;5036581;28;20875;-64
2022/12/22 06:26:08;;;;;;;8.70;7.60;;;8.90;99.90;;;;;;5031832;28;20217;-63
2022/12/22 06:28:35;;;;;;;11.52;8.10;;;8.90;99.90;;;;;;5035699;28;20441;-63
2022/12/22 06:31:02;;;;;;;9.80;8.38;;;9.00;99.90;;;;;;5035561;28;20226;-62
2022/12/22 06:33:28;;;;;;;9.00;8.13;;;9.00;99.90;;;;;;5034117;28;20718;-63
2022/12/22 06:35:55;;;;;;;8.70;7.35;;;9.00;99.90;;;;;;5035348;28;20206;-63
2022/12/22 06:38:22;;;;;;;11.80;9.05;;;9.00;99.90;;;;;;5035002;28;20206;-63
2022/12/22 06:40:50;;;;;;;11.90;9.23;;;9.00;99.90;;;;;;5047076;28;20212;-63
2022/12/22 06:43:16;;;;;;;10.30;8.77;;;9.00;99.90;;;;;;5035989;28;20249;-63
2022/12/22 06:45:44;;;;;;;11.20;9.90;;;9.00;99.90;;;;;;5034928;28;20642;-62
2022/12/22 06:48:12;;;;;;;9.70;8.52;;;9.00;99.90;;;;;;5034819;28;20204;-62
2022/12/22 06:50:39;;;;;;;10.25;8.60;;;9.00;99.90;;;;;;5035661;28;20716;-62
2022/12/22 06:53:06;;;;;;;14.02;9.85;;;9.00;99.90;;;;;;5034101;28;20253;-63
2022/12/22 06:55:33;;;;;;;11.70;9.40;;;9.00;99.90;;;;;;5034980;28;20203;-63
2022/12/22 06:58:01;;;;;;;11.50;9.30;;;9.10;99.90;;;;;;5037922;28;20576;-63
2022/12/22 07:00:28;;;;;;;11.35;9.90;;;9.10;99.90;;;;;;5054784;28;20436;-65
2022/12/22 07:02:55;;;;;;;11.93;9.67;;;9.00;99.90;;;;;;5054500;28;20221;-64
2022/12/22 07:05:22;;;;;;;11.95;9.90;;;9.00;99.90;;;;;;5054228;28;20954;-63
2022/12/22 07:07:49;;;;;;;13.97;9.77;;;9.00;99.90;;;;;;5054844;28;20232;-63
2022/12/22 07:10:16;;;;;;;12.57;9.20;;;9.00;99.90;;;;;;5055067;28;20471;-63
2022/12/22 07:12:42;;;;;;;12.20;10.02;;;9.00;99.90;;;;;;5055746;28;20225;-63
2022/12/22 07:15:11;;;;;;;13.68;10.63;;;9.00;99.90;;;;;;5059379;28;20255;-62
2022/12/22 07:17:40;;;;;;;13.80;9.05;;;9.10;99.90;;;;;;5054467;28;20202;-64
2022/12/22 07:20:08;;;;;;;10.13;8.98;;;9.10;99.90;;;;;;5054299;28;20291;-63
2022/12/22 07:22:35;;;;;;;12.82;9.27;;;9.10;99.90;;;;;;5053734;28;20230;-64
2022/12/22 07:25:01;;;;;;;9.95;8.57;;;9.10;99.90;;;;;;5054275;28;20205;-63
2022/12/22 07:27:28;;;;;;;10.93;9.45;;;9.10;99.90;;;;;;5053749;28;20205;-64
2022/12/22 07:29:55;;;;;;;13.75;8.98;;;9.10;99.90;;;;;;5054190;28;20225;-63
2022/12/22 07:32:23;;;;;;;14.07;9.63;;;9.00;99.90;;;;;;5053675;28;20712;-63
2022/12/22 07:34:49;;;;;;;12.43;9.30;;;9.10;99.90;;;;;;5054112;28;20205;-63
2022/12/22 07:37:16;;;;;;;11.40;9.05;;;9.00;99.90;;;;;;5054063;28;20672;-62
2022/12/22 07:39:43;;;;;;;11.60;9.00;;;9.00;99.90;;;;;;5054037;28;20217;-63
2022/12/22 07:44:55;;;;;;;11.90;9.07;;;9.00;99.90;;;;;;5053787;28;20208;-61
2022/12/22 07:47:23;;;;;;;12.32;9.93;;;9.10;99.90;;;;;;5054297;28;20212;-63
2022/12/22 07:52:34;;;;;;;13.43;9.25;;;9.00;99.90;;;;;;5054648;28;20216;-62
2022/12/22 07:55:01;;;;;;;15.15;11.80;;;9.00;99.90;;;;;;5053341;28;20413;-62
2022/12/22 07:57:28;;;;;;;13.50;11.30;;;9.10;99.90;;;;;;5053146;28;20413;-64
2022/12/22 07:59:54;;;;;;;13.90;11.23;;;9.10;99.90;;;;;;5052864;28;20409;-63
2022/12/22 08:02:22;;;;;;;12.95;10.80;;;9.20;99.90;;;;;;5053708;28;20406;-62
2022/12/22 08:04:49;;;;;;;13.48;11.32;;;9.20;99.90;;;;;;5053515;28;20424;-63
2022/12/22 08:07:16;;;;;;;13.57;11.13;;;9.20;99.90;;;;;;5053740;28;20894;-63
2022/12/22 08:09:42;;;;;;;14.50;11.75;;;9.20;99.90;;;;;;5053520;28;20424;-63
2022/12/22 08:12:09;;;;;;;14.30;11.70;;;9.20;99.90;;;;;;5053978;28;20413;-63
2022/12/22 08:14:36;;;;;;;15.32;12.55;;;9.10;99.90;;;;;;5054923;28;20420;-63
2022/12/22 08:17:03;;;;;;;13.80;11.57;;;9.10;99.90;;;;;;5053086;28;20467;-63
2022/12/22 08:19:31;;;;;;;14.05;12.07;;;9.10;99.90;;;;;;5052897;28;20417;-62
2022/12/22 08:21:59;;;;;;;15.73;12.45;;;9.10;99.90;;;;;;5054214;28;20409;-63
2022/12/22 08:24:26;;;;;;;14.77;10.60;;;9.00;99.90;;;;;;5054325;28;20216;-62
2022/12/22 08:26:57;;;;;;;11.67;9.13;;;9.00;99.90;;;;;;5057443;28;20459;-62
2022/12/22 08:29:27;;;;;;;12.17;9.77;;;9.00;99.90;;;;;;5057810;28;20441;-62
2022/12/22 08:31:54;;;;;;;12.17;9.60;;;9.00;99.90;;;;;;5060655;28;20479;-63
2022/12/22 08:34:21;;;;;;;14.80;10.33;;;9.00;99.90;;;;;;5056416;28;20460;-63
2022/12/22 08:36:52;;;;;;;13.60;11.57;;;9.00;99.90;;;;;;5053855;28;20521;-63
2022/12/22 08:39:21;;;;;;;14.93;11.63;;;9.10;99.90;;;;;;5056499;28;20622;-63
2022/12/22 08:41:50;;;;;;;14.52;11.80;;;9.10;99.90;;;;;;5057826;28;20205;-63
2022/12/22 08:44:19;;;;;;;15.68;11.15;;;9.20;99.90;;;;;;5057819;28;20224;-62
2022/12/22 08:46:46;;;;;;;14.30;10.77;;;9.20;99.90;;;;;;5057647;28;20666;-63
2022/12/22 08:49:13;;;;;;;12.97;9.90;;;9.30;99.90;;;;;;5061256;28;20448;-62
2022/12/22 08:51:40;;;;;;;16.80;10.10;;;9.30;99.90;;;;;;5065127;28;20487;-63
2022/12/22 08:54:08;;;;;;;13.23;11.07;;;9.30;99.90;;;;;;5067229;28;20467;-62
2022/12/22 08:56:35;;;;;;;12.30;10.32;;;9.20;99.90;;;;;;5070988;28;20458;-63
2022/12/22 08:59:04;;;;;;;12.32;9.82;;;9.20;99.90;;;;;;5071773;28;20201;-63
2022/12/22 09:01:32;;;;;;;15.75;11.35;;;9.20;99.90;;;;;;5073076;28;20198;-63
2022/12/22 09:03:59;;;;;;;14.13;11.30;;;9.20;99.90;;;;;;5071190;28;20413;-63
2022/12/22 09:06:26;;;;;;;13.30;10.53;;;9.20;99.90;;;;;;5072430;28;20458;-62
2022/12/22 09:08:54;;;;;;;11.77;10.40;;;9.30;99.90;;;;;;5064449;28;20455;-62
2022/12/22 09:11:22;;;;;;;12.93;10.20;;;9.30;99.90;;;;;;5066587;28;20570;-63
2022/12/22 09:13:51;;;;;;;14.20;10.70;;;9.30;99.90;;;;;;5066408;28;20482;-63
2022/12/22 09:16:19;;;;;;;11.15;9.88;;;9.30;99.90;;;;;;5066142;28;20440;-63
2022/12/22 09:18:46;;;;;;;13.82;11.05;;;9.30;99.90;;;;;;5055814;28;20413;-63
2022/12/22 09:21:12;;;;;;;12.93;9.63;;;9.30;99.90;;;;;;5056891;28;20779;-63
2022/12/22 09:23:39;;;;;;;11.73;9.70;;;9.30;99.90;;;;;;5056710;28;20472;-63
2022/12/22 09:26:07;;;;;;;13.05;9.73;;;9.30;99.90;;;;;;5056992;28;20201;-63
2022/12/22 09:28:35;;;;;;;13.50;9.67;;;9.30;99.90;;;;;;5058890;28;20212;-63
2022/12/22 09:31:03;;;;;;;12.93;9.52;;;9.30;99.90;;;;;;5059689;28;20486;-63
2022/12/22 09:33:30;;;;;;;12.90;8.68;;;9.40;99.90;;;;;;5057569;28;20217;-63
2022/12/22 09:35:57;;;;;;;12.90;10.00;;;9.40;99.90;;;;;;5058409;28;20209;-62
2022/12/22 09:38:26;;;;;;;14.35;10.55;;;9.40;99.90;;;;;;5059006;28;20448;-63
2022/12/22 09:40:53;;;;;;;13.20;9.97;;;9.50;99.90;;;;;;5058969;28;20205;-63
2022/12/22 09:43:26;;;;;;;19.20;12.82;;;9.50;99.90;;;;;;5059794;28;20460;-63
2022/12/22 09:45:54;;;;;;;17.70;11.43;;;9.50;99.90;;;;;;5058570;28;20189;-62
2022/12/22 09:48:21;;;;;;;15.98;11.30;;;9.50;99.90;;;;;;5056928;28;20421;-61
2022/12/22 09:50:48;;;;;;;15.45;12.32;;;9.60;99.90;;;;;;5056561;28;20539;-62
2022/12/22 09:53:20;;;;;;;16.53;12.53;;;9.50;99.90;;;;;;5058676;28;20225;-64
2022/12/22 09:55:49;;;;;;;14.77;10.53;;;9.50;99.90;;;;;;5058547;28;20440;-63
2022/12/22 09:58:21;;;;;;;15.23;11.27;;;9.50;99.90;;;;;;5057749;28;20436;-62
2022/12/22 10:00:50;;;;;;;13.35;11.10;;;9.50;99.90;;;;;;5058173;28;20182;-63
2022/12/22 10:03:32;;;;;;;12.90;10.50;;;9.40;99.90;;;;;;5057949;28;20304;-63
2022/12/22 10:06:08;;;;;;;14.18;10.90;;;9.40;99.90;;;;;;5057434;28;20432;-62
2022/12/22 10:08:37;;;;;;;15.13;9.98;;;9.40;99.90;;;;;;5057510;28;20200;-61
2022/12/22 10:11:04;;;;;;;15.43;11.33;;;9.40;99.90;;;;;;5057490;28;20226;-62
2022/12/22 10:13:31;;;;;;;15.45;11.45;;;9.30;99.90;;;;;;5057160;28;20468;-62
2022/12/22 10:15:58;;;;;;;14.57;10.13;;;9.30;99.90;;;;;;5057084;28;20280;-63
2022/12/22 10:18:28;;;;;;;16.50;12.15;;;9.30;99.90;;;;;;5055505;28;20413;-62
2022/12/22 10:21:10;;;;;;;13.25;10.02;;;9.30;99.90;;;;;;5056919;28;20193;-60
2022/12/22 10:23:39;;;;;;;14.67;10.40;;;9.20;99.90;;;;;;5056163;28;20249;-63
2022/12/22 10:26:10;;;;;;;16.10;10.55;;;9.20;99.90;;;;;;5056265;28;20448;-65
2022/12/22 10:28:41;;;;;;;16.20;12.20;;;9.20;99.90;;;;;;5055457;28;20428;-62
2022/12/22 10:31:15;;;;;;;13.23;9.90;;;9.20;99.90;;;;;;5055638;28;20210;-62
2022/12/22 10:33:45;;;;;;;13.10;9.70;;;9.20;99.90;;;;;;5055428;28;20471;-63
2022/12/22 10:36:13;;;;;;;14.10;10.60;;;9.20;99.90;;;;;;5054893;28;20425;-63
2022/12/22 10:38:54;;;;;;;14.15;10.38;;;9.20;99.90;;;;;;5054606;28;20610;-63
2022/12/22 10:41:23;;;;;;;15.60;11.40;;;9.20;99.90;;;;;;5054891;28;20421;-63
2022/12/22 10:43:52;;;;;;;12.87;9.70;;;9.20;99.90;;;;;;5055272;28;20513;-60
2022/12/22 10:46:20;;;;;;;15.00;10.90;;;9.20;99.90;;;;;;5054317;28;20424;-61
2022/12/22 10:48:48;;;;;;;14.57;10.55;;;9.20;99.90;;;;;;5054520;28;20493;-62
2022/12/22 10:51:15;;;;;;;14.52;9.90;;;9.20;99.90;;;;;;5054679;28;20436;-62
2022/12/22 10:53:46;;;;;;;14.37;9.03;;;9.30;99.90;;;;;;5055667;28;20259;-62
2022/12/22 10:56:25;;;;;;;12.43;9.52;;;9.30;99.90;;;;;;5054766;28;20933;-61
2022/12/22 10:58:54;;;;;;;13.10;8.73;;;9.30;99.90;;;;;;5055776;28;20237;-62
2022/12/22 11:01:27;;;;;;;10.80;8.47;;;9.30;99.90;;;;;;5055901;28;20440;-63
2022/12/22 11:03:56;;;;;;;13.18;9.90;;;9.30;99.90;;;;;;5054625;28;20440;-62
2022/12/22 11:06:23;;;;;;;12.90;9.82;;;9.30;99.90;;;;;;5054577;28;20421;-65
2022/12/22 11:08:50;;;;;;;13.63;10.40;;;9.30;99.90;;;;;;5054665;28;20421;-63
2022/12/22 11:11:31;;;;;;;12.65;10.30;;;9.30;99.90;;;;;;5054252;28;20425;-63
2022/12/22 11:14:09;;;;;;;13.32;10.38;;;9.30;99.90;;;;;;5054653;28;20489;-64
2022/12/22 11:16:41;;;;;;;14.33;9.90;;;9.20;99.90;;;;;;5056025;28;20186;-63
2022/12/22 11:19:35;;;;;;;13.97;9.93;;;9.20;99.90;;;;;;5055687;28;20439;-61
2022/12/22 11:22:09;;;;;;;14.48;10.52;;;9.20;99.90;;;;;;5054951;28;20421;-59
2022/12/22 11:24:44;;;;;;;16.67;12.23;;;9.20;99.90;;;;;;5053417;28;20417;-61
2022/12/22 11:27:27;;;;;;;19.03;12.80;;;9.10;99.90;;;;;;5053478;28;20427;-62
2022/12/22 11:30:10;;;;;;;18.98;12.68;;;9.10;99.90;;;;;;5053517;28;20471;-63
2022/12/22 11:33:01;;;;;;;20.27;13.85;;;9.10;99.90;;;;;;5054273;28;20470;-60
2022/12/22 11:35:43;;;;;;;20.98;14.38;;;9.10;99.90;;;;;;5054632;28;20469;-65
2022/12/22 11:38:20;;;;;;;19.48;13.30;;;9.10;99.90;;;;;;5052597;28;20424;-63
2022/12/22 11:40:52;;;;;;;22.27;14.10;;;9.10;99.90;;;;;;5052819;28;20454;-63
2022/12/22 11:43:25;;;;;;;20.10;13.57;;;9.10;99.90;;;;;;5052808;28;20427;-63
2022/12/22 11:46:00;;;;;;;21.83;13.50;;;9.10;99.90;;;;;;5053035;28;20469;-62
2022/12/22 11:49:03;;;;;;;21.30;14.07;;;9.20;99.90;;;;;;5053555;28;20419;-63
2022/12/22 11:51:50;;;;;;;21.98;13.40;;;9.20;99.90;;;;;;4992406;28;20472;-62
2022/12/22 11:54:48;;;;;;;20.02;13.57;;;9.30;99.90;;;;;;5047264;28;20429;-62
2022/12/22 11:57:27;;;;;;;20.53;13.40;;;9.40;99.90;;;;;;5053737;28;20417;-62
2022/12/22 12:00:02;;;;;;;22.00;14.25;;;9.40;99.90;;;;;;5053321;28;20782;-62
2022/12/22 12:03:01;;;;;;;18.70;13.30;;;9.50;99.90;;;;;;5054316;28;20405;-63
2022/12/22 12:06:08;;;;;;;19.48;13.30;;;9.50;99.90;;;;;;5053429;28;20416;-63
2022/12/22 12:08:50;;;;;;;18.42;12.23;;;9.50;99.90;;;;;;5044301;28;20413;-63
2022/12/22 12:11:23;;;;;;;18.20;12.45;;;9.50;99.90;;;;;;5052442;28;20425;-62
2022/12/22 12:13:57;;;;;;;17.48;12.63;;;9.50;99.90;;;;;;5052686;28;20427;-63
2022/12/22 12:16:33;;;;;;;20.63;13.07;;;9.50;99.90;;;;;;5052476;28;20417;-62
2022/12/22 12:19:27;;;;;;;17.63;12.07;;;9.60;99.90;;;;;;5052720;28;20412;-62
2022/12/22 12:21:56;;;;;;;17.00;11.77;;;9.60;99.90;;;;;;5053383;28;20934;-61
2022/12/22 12:24:47;;;;;;;18.25;11.95;;;9.60;99.90;;;;;;5053109;28;20409;-62
2022/12/22 12:27:27;;;;;;;17.25;11.45;;;9.60;99.90;;;;;;5053796;28;20518;-62
2022/12/22 12:30:02;;;;;;;17.80;12.95;;;9.60;99.90;;;;;;5053266;28;20417;-63
2022/12/22 12:32:35;;;;;;;16.65;11.50;;;9.60;99.90;;;;;;5058700;28;20451;-62
2022/12/22 12:35:13;;;;;;;18.17;12.30;;;9.60;99.90;;;;;;5057412;28;20413;-63
2022/12/22 12:37:43;;;;;;;17.95;11.63;;;9.70;99.90;;;;;;5058119;28;20525;-62
2022/12/22 12:40:27;;;;;;;19.85;13.40;;;9.70;99.90;;;;;;5057008;28;20413;-61
2022/12/22 12:42:55;;;;;;;18.98;13.60;;;9.70;99.90;;;;;;5058180;28;20420;-63
2022/12/22 12:45:36;;;;;;;18.67;13.18;;;9.70;99.90;;;;;;5056870;28;20416;-61
2022/12/22 12:48:36;;;;;;;21.83;13.73;;;9.60;99.90;;;;;;5056863;28;20416;-61
2022/12/22 12:51:25;;;;;;;20.52;14.10;;;9.60;99.90;;;;;;5054278;28;20431;-63
2022/12/22 12:54:23;;;;;;;22.98;14.68;;;9.50;99.90;;;;;;5057632;28;20423;-63
2022/12/22 12:56:59;;;;;;;22.58;14.63;;;9.50;99.90;;;;;;5056270;28;20409;-62
2022/12/22 12:59:46;;;;;;;21.55;13.70;;;9.50;99.90;;;;;;5055896;28;20439;-62
2022/12/22 13:02:31;;;;;;;19.63;13.70;;;9.50;99.90;;;;;;5056232;28;20398;-62
2022/12/22 13:05:05;;;;;;;20.67;14.18;;;9.50;99.90;;;;;;5056077;28;20977;-63
2022/12/22 13:08:11;;;;;;;18.63;13.13;;;9.50;99.90;;;;;;5056534;28;20409;-62
2022/12/22 13:10:41;;;;;;;20.42;13.38;;;9.50;99.90;;;;;;5052336;28;20436;-61
2022/12/22 13:13:33;;;;;;;19.90;13.90;;;9.60;99.90;;;;;;5055885;28;20803;-61
2022/12/22 13:16:23;;;;;;;18.70;12.77;;;9.60;99.90;;;;;;5054684;28;20417;-62
2022/12/22 13:18:51;;;;;;;19.73;13.15;;;9.70;99.90;;;;;;5056243;28;20417;-62
2022/12/22 13:21:24;;;;;;;19.75;13.38;;;9.70;99.90;;;;;;5055530;28;20546;-61
2022/12/22 13:23:57;;;;;;;18.55;12.77;;;9.70;99.90;;;;;;5054924;28;20808;-63
2022/12/22 13:26:27;;;;;;;20.13;13.68;;;9.70;99.90;;;;;;5055514;28;20417;-63
2022/12/22 13:28:58;;;;;;;19.95;14.30;;;9.70;99.90;;;;;;5055146;28;20882;-62
2022/12/22 13:31:30;;;;;;;18.73;13.73;;;9.70;99.90;;;;;;5045865;28;20431;-63
2022/12/22 13:34:06;;;;;;;17.53;13.53;;;9.70;99.90;;;;;;5032399;28;20899;-63
2022/12/22 13:36:34;;;;;;;18.75;13.40;;;9.70;99.90;;;;;;5029420;28;20430;-62
2022/12/22 13:39:02;;;;;;;16.80;12.63;;;9.80;99.90;;;;;;5036555;28;20425;-62
2022/12/22 13:41:30;;;;;;;19.90;13.80;;;9.70;99.90;;;;;;5035270;28;20423;-62
2022/12/22 13:44:04;;;;;;;18.38;12.75;;;9.70;99.90;;;;;;5034769;28;20426;-62
2022/12/22 13:46:33;;;;;;;19.45;13.30;;;9.70;99.90;;;;;;5034936;28;20422;-62
2022/12/22 13:49:03;;;;;;;19.23;13.40;;;9.70;99.90;;;;;;5035664;28;20923;-63
2022/12/22 13:51:34;;;;;;;19.83;13.80;;;9.70;99.90;;;;;;5035352;28;20977;-68
2022/12/22 13:54:03;;;;;;;20.60;14.48;;;9.60;99.90;;;;;;5035694;28;20827;-62
2022/12/22 13:56:38;;;;;;;19.33;13.30;;;9.50;99.90;;;;;;5035512;28;20422;-61
2022/12/22 13:59:18;;;;;;;19.40;13.27;;;9.40;99.90;;;;;;5035309;28;20411;-62
2022/12/22 14:01:49;;;;;;;19.23;13.50;;;9.30;99.90;;;;;;5034559;28;20435;-61
2022/12/22 14:04:16;;;;;;;21.95;14.15;;;9.30;99.90;;;;;;5035151;28;20591;-62
2022/12/22 14:06:43;;;;;;;20.75;13.60;;;9.20;99.90;;;;;;5035091;28;20439;-62
2022/12/22 14:09:12;;;;;;;20.67;14.25;;;9.10;99.90;;;;;;5036256;28;20430;-62
2022/12/22 14:11:40;;;;;;;20.10;13.73;;;9.10;99.90;;;;;;5054400;28;20456;-62
2022/12/22 14:14:09;;;;;;;20.90;13.15;;;9.10;99.90;;;;;;5054868;28;20421;-63
2022/12/22 14:16:43;;;;;;;22.30;13.73;;;9.10;99.90;;;;;;5055481;28;20427;-62
2022/12/22 14:19:13;;;;;;;22.20;14.03;;;9.00;99.90;;;;;;5041527;28;20976;-63
2022/12/22 14:21:40;;;;;;;21.13;13.32;;;9.00;99.90;;;;;;5035128;28;20419;-62
2022/12/22 14:24:12;;;;;;;23.35;13.50;;;9.00;99.90;;;;;;5035077;28;20725;-62
2022/12/22 14:26:38;;;;;;;18.80;12.38;;;8.90;99.90;;;;;;5035138;28;20433;-63
2022/12/22 14:29:13;;;;;;;19.30;12.40;;;8.90;99.90;;;;;;5035167;28;20419;-63
2022/12/22 14:31:52;;;;;;;18.70;11.60;;;8.90;99.90;;;;;;5038240;28;20438;-62
2022/12/22 14:34:25;;;;;;;17.90;11.60;;;8.90;99.90;;;;;;5038376;28;20936;-63
2022/12/22 14:36:52;;;;;;;16.35;10.90;;;8.80;99.90;;;;;;5041139;28;20448;-62
2022/12/22 14:39:22;;;;;;;17.38;11.38;;;8.80;99.90;;;;;;5039632;28;20423;-62
2022/12/22 14:41:51;;;;;;;15.82;10.07;;;8.70;99.90;;;;;;5041796;28;20502;-59
2022/12/22 14:44:23;;;;;;;15.98;10.52;;;8.70;99.90;;;;;;5036235;28;20411;-62
2022/12/22 14:47:07;;;;;;;12.82;8.88;;;8.60;99.90;;;;;;5034204;28;20422;-61
2022/12/22 14:49:35;;;;;;;14.07;9.65;;;8.60;99.90;;;;;;5034669;28;20415;-62
2022/12/22 14:52:07;;;;;;;15.15;10.50;;;8.60;99.90;;;;;;5033888;28;20434;-63
2022/12/22 14:54:34;;;;;;;16.23;9.30;;;8.50;99.90;;;;;;5033389;28;20417;-61
2022/12/22 14:57:05;;;;;;;14.30;8.85;;;8.50;99.90;;;;;;5035043;28;20415;-65
2022/12/22 14:59:33;;;;;;;11.75;9.00;;;8.40;99.90;;;;;;5034878;28;20422;-65
2022/12/22 15:02:01;;;;;;;14.35;8.82;;;8.40;99.90;;;;;;5037590;28;20426;-67
2022/12/22 15:04:30;;;;;;;11.82;8.68;;;8.30;99.90;;;;;;5035257;28;20418;-65
2022/12/22 15:07:16;;;;;;;14.63;9.70;;;8.30;99.90;;;;;;5034480;28;20410;-65
2022/12/22 15:09:42;;;;;;;15.60;9.30;;;8.30;99.90;;;;;;5034758;28;20419;-64
2022/12/22 15:12:13;;;;;;;15.80;8.98;;;8.20;99.90;;;;;;5033834;28;20441;-65
2022/12/22 15:14:42;;;;;;;11.57;8.90;;;8.10;99.90;;;;;;5034696;28;20887;-65
2022/12/22 15:17:21;;;;;;;12.70;8.65;;;8.10;99.90;;;;;;5033756;28;20418;-65
2022/12/22 15:19:49;;;;;;;12.40;8.60;;;8.00;99.90;;;;;;5032884;28;20510;-65
2022/12/22 15:22:15;;;;;;;12.05;8.50;;;8.00;99.90;;;;;;5033620;28;20402;-66
2022/12/22 15:24:42;;;;;;;14.05;9.90;;;8.00;99.90;;;;;;5033824;28;20419;-65
2022/12/22 15:27:09;;;;;;;14.90;8.60;;;7.90;99.90;;;;;;5034482;28;20497;-64
2022/12/22 15:29:36;;;;;;;12.80;7.45;;;7.90;99.90;;;;;;5034023;28;20895;-64
2022/12/22 15:32:06;;;;;;;10.15;7.18;;;7.90;99.90;;;;;;5033582;28;20423;-61
2022/12/22 15:34:33;;;;;;;10.53;6.97;;;7.90;99.90;;;;;;5033450;28;20422;-61
2022/12/22 15:36:59;;;;;;;10.07;6.20;;;7.80;99.90;;;;;;5034028;28;20426;-61
2022/12/22 15:39:26;;;;;;;9.90;6.50;;;7.80;99.90;;;;;;5033426;28;20422;-64
2022/12/22 15:41:54;;;;;;;10.25;6.40;;;7.80;99.90;;;;;;5033728;28;20415;-66
2022/12/22 15:44:21;;;;;;;10.70;6.22;;;7.70;99.90;;;;;;5034769;28;20426;-65
2022/12/22 15:46:52;;;;;;;11.20;6.20;;;7.70;99.90;;;;;;5032726;28;20780;-64
2022/12/22 15:49:23;;;;;;;8.38;5.40;;;7.70;99.90;;;;;;5037459;28;20432;-64
2022/12/22 15:51:53;;;;;;;8.63;5.60;;;7.60;99.90;;;;;;5054491;28;20453;-63
2022/12/22 15:54:20;;;;;;;8.37;5.73;;;7.60;99.90;;;;;;5055134;28;20421;-62
2022/12/22 15:56:50;;;;;;;11.02;6.15;;;7.50;99.90;;;;;;5054474;28;20409;-62
2022/12/22 15:59:19;;;;;;;10.02;6.18;;;7.50;99.90;;;;;;5054796;28;20419;-62
2022/12/22 16:01:46;;;;;;;9.55;6.13;;;7.50;99.90;;;;;;5056297;28;20417;-62
2022/12/22 16:04:13;;;;;;;8.10;6.45;;;7.50;99.90;;;;;;5056137;28;20858;-62
2022/12/22 16:06:41;;;;;;;8.97;6.50;;;7.40;99.90;;;;;;5055814;28;20417;-63
2022/12/22 16:09:13;;;;;;;10.80;7.10;;;7.40;99.90;;;;;;5054804;28;20425;-62
2022/12/22 16:11:40;;;;;;;10.15;7.03;;;7.40;99.90;;;;;;5056400;28;20424;-62
2022/12/22 16:14:10;;;;;;;13.90;8.20;;;7.30;99.90;;;;;;5055952;28;20425;-61
2022/12/22 16:16:37;;;;;;;10.83;7.37;;;7.30;99.90;;;;;;5055609;28;20503;-61
2022/12/22 16:19:04;;;;;;;14.85;7.40;;;7.30;99.90;;;;;;5055353;28;20467;-63
2022/12/22 16:21:32;;;;;;;10.27;6.78;;;7.30;99.90;;;;;;5055966;28;20496;-62
2022/12/22 16:24:02;;;;;;;12.10;8.00;;;7.30;99.90;;;;;;5054997;28;20413;-62
2022/12/22 16:26:30;;;;;;;10.82;7.45;;;7.20;99.90;;;;;;5054530;28;20537;-63
2022/12/22 16:28:58;;;;;;;11.35;7.95;;;7.20;99.90;;;;;;5054679;28;20463;-62
2022/12/22 16:31:25;;;;;;;14.82;8.27;;;7.20;99.90;;;;;;5053826;28;20439;-63
2022/12/22 16:33:52;;;;;;;12.38;8.32;;;7.10;99.90;;;;;;5054903;28;20432;-62
2022/12/22 16:36:19;;;;;;;14.20;8.80;;;7.10;99.90;;;;;;5055329;28;20424;-61
2022/12/22 16:38:46;;;;;;;12.00;9.20;;;7.10;99.90;;;;;;5055845;28;20417;-62
2022/12/22 16:41:21;;;;;;;11.60;9.00;;;7.10;99.90;;;;;;5055778;28;20421;-64
2022/12/22 16:43:49;;;;;;;15.98;9.07;;;7.10;99.90;;;;;;5054878;28;20777;-64
2022/12/22 16:46:18;;;;;;;12.20;8.57;;;7.10;99.90;;;;;;5055126;28;20882;-63
2022/12/22 16:48:46;;;;;;;13.48;8.60;;;7.10;99.90;;;;;;5054567;28;20557;-63